createdAt,value
2022-12-28T00:00:13.758Z,4.70
2022-12-28T00:02:42.200Z,3.93
2022-12-28T00:05:11.542Z,4.50
2022-12-28T00:07:39.909Z,4.67
2022-12-28T00:10:08.148Z,4.30
2022-12-28T00:12:35.882Z,5.20
2022-12-28T00:15:03.526Z,3.97
2022-12-28T00:17:31.831Z,5.80
2022-12-28T00:19:59.529Z,4.53
2022-12-28T00:22:29.503Z,3.80
2022-12-28T00:24:57.608Z,3.60
2022-12-28T00:27:25.277Z,3.63
2022-12-28T00:29:52.942Z,2.83
2022-12-28T00:32:21.510Z,2.87
2022-12-28T00:34:49.538Z,5.10
2022-12-28T00:37:17.199Z,3.47
2022-12-28T00:39:47.762Z,2.60
2022-12-28T00:42:16.185Z,4.43
2022-12-28T00:44:44.983Z,2.50
2022-12-28T00:47:12.687Z,2.70
2022-12-28T00:49:40.499Z,3.10
2022-12-28T00:52:08.203Z,3.10
2022-12-28T00:54:35.900Z,2.50
2022-12-28T00:57:05.171Z,4.37
2022-12-28T00:59:34.637Z,3.83
2022-12-28T01:02:02.452Z,3.20
2022-12-28T01:04:30.528Z,3.70
2022-12-28T01:06:58.196Z,3.30
2022-12-28T01:09:26.401Z,3.50
2022-12-28T01:11:55.645Z,4.03
2022-12-28T01:14:25.575Z,4.13
2022-12-28T01:16:53.464Z,3.70
2022-12-28T01:19:23.773Z,3.23
2022-12-28T01:21:52.921Z,3.10
2022-12-28T01:24:20.671Z,2.90
2022-12-28T01:26:51.122Z,3.70
2022-12-28T01:29:19.260Z,3.50
2022-12-28T01:31:49.126Z,3.10
2022-12-28T01:34:17.230Z,4.10
2022-12-28T01:36:47.559Z,3.30
2022-12-28T01:39:15.573Z,4.30
2022-12-28T01:41:44.068Z,2.60
2022-12-28T01:44:41.103Z,3.47
2022-12-28T01:47:14.526Z,2.50
2022-12-28T01:49:47.454Z,2.63
2022-12-28T01:52:21.625Z,2.60
2022-12-28T01:54:54.132Z,2.53
2022-12-28T01:57:28.265Z,2.43
2022-12-28T02:00:01.583Z,2.27
2022-12-28T02:02:44.137Z,3.10
2022-12-28T02:05:14.284Z,2.57
2022-12-28T02:07:47.867Z,2.03
2022-12-28T02:10:41.519Z,2.30
2022-12-28T02:13:06.027Z,3.20
2022-12-28T02:15:34.126Z,3.07
2022-12-28T02:18:03.807Z,1.40
2022-12-28T02:20:40.335Z,2.03
2022-12-28T02:23:35.334Z,1.80
2022-12-28T02:26:37.217Z,2.23
2022-12-28T02:29:27.586Z,2.60
2022-12-28T02:32:02.091Z,2.53
2022-12-28T02:34:36.481Z,2.10
2022-12-28T02:37:10.745Z,1.40
2022-12-28T02:39:42.827Z,1.63
2022-12-28T02:42:11.836Z,1.80
2022-12-28T02:44:58.487Z,2.33
2022-12-28T02:47:43.929Z,1.77
2022-12-28T02:50:15.712Z,1.73
2022-12-28T02:53:02.695Z,2.07
2022-12-28T02:56:15.992Z,2.13
2022-12-28T02:59:15.646Z,1.60
2022-12-28T03:02:09.740Z,1.70
2022-12-28T03:04:51.462Z,1.83
2022-12-28T03:07:44.059Z,2.07
2022-12-28T03:10:15.663Z,2.40
2022-12-28T03:12:49.423Z,1.87
2022-12-28T03:15:29.633Z,1.80
2022-12-28T03:18:21.518Z,1.50
2022-12-28T03:21:10.287Z,1.77
2022-12-28T03:23:58.719Z,1.60
2022-12-28T03:26:49.533Z,1.47
2022-12-28T03:29:39.216Z,1.27
2022-12-28T03:32:08.643Z,1.20
2022-12-28T03:34:39.232Z,1.77
2022-12-28T03:37:12.919Z,1.67
2022-12-28T03:39:45.401Z,2.20
2022-12-28T03:42:35.018Z,1.77
2022-12-28T03:45:10.536Z,1.37
2022-12-28T03:47:43.585Z,1.63
2022-12-28T03:50:12.958Z,0.90
2022-12-28T03:52:41.384Z,1.77
2022-12-28T03:55:10.076Z,1.70
2022-12-28T03:57:39.211Z,1.87
2022-12-28T04:00:12.593Z,1.17
2022-12-28T04:02:51.181Z,1.43
2022-12-28T04:05:22.001Z,1.60
2022-12-28T04:07:50.398Z,1.40
2022-12-28T04:10:18.242Z,1.53
2022-12-28T04:12:46.075Z,1.20
2022-12-28T04:15:26.584Z,2.03
2022-12-28T04:17:54.930Z,1.40
2022-12-28T04:20:25.733Z,1.30
2022-12-28T04:22:53.960Z,1.43
2022-12-28T04:25:22.246Z,1.20
2022-12-28T04:27:50.744Z,1.07
2022-12-28T04:30:38.451Z,1.37
2022-12-28T04:33:06.517Z,0.70
2022-12-28T04:35:35.612Z,1.17
2022-12-28T04:38:03.511Z,1.17
2022-12-28T04:40:31.196Z,0.80
2022-12-28T04:42:58.928Z,2.27
2022-12-28T04:45:26.635Z,0.80
2022-12-28T04:47:58.169Z,0.70
2022-12-28T04:50:26.247Z,0.40
2022-12-28T04:52:55.637Z,0.77
2022-12-28T04:55:32.133Z,0.87
2022-12-28T04:58:01.657Z,0.60
2022-12-28T05:00:29.706Z,0.50
2022-12-28T05:03:00.323Z,0.63
2022-12-28T05:05:28.848Z,0.63
2022-12-28T05:08:01.468Z,0.73
2022-12-28T05:10:29.445Z,0.87
2022-12-28T05:12:58.139Z,0.70
2022-12-28T05:15:26.071Z,1.40
2022-12-28T05:17:55.984Z,0.73
2022-12-28T05:20:23.641Z,0.80
2022-12-28T05:22:51.871Z,0.97
2022-12-28T05:25:21.153Z,1.07
2022-12-28T05:27:49.190Z,0.40
2022-12-28T05:30:16.960Z,1.23
2022-12-28T05:32:44.877Z,1.43
2022-12-28T05:35:12.751Z,0.50
2022-12-28T05:37:40.798Z,0.40
2022-12-28T05:40:09.706Z,0.50
2022-12-28T05:42:38.768Z,1.53
2022-12-28T05:45:07.435Z,0.53
2022-12-28T05:47:35.123Z,0.30
2022-12-28T05:50:02.969Z,0.53
2022-12-28T05:52:32.602Z,0.50
2022-12-28T05:55:00.251Z,0.20
2022-12-28T05:57:28.294Z,0.80
2022-12-28T05:59:57.776Z,0.70
2022-12-28T06:02:27.654Z,1.87
2022-12-28T06:04:55.795Z,0.63
2022-12-28T06:07:23.856Z,0.53
2022-12-28T06:09:51.570Z,0.80
2022-12-28T06:12:19.253Z,0.40
2022-12-28T06:14:46.978Z,0.50
2022-12-28T06:17:15.987Z,0.53
2022-12-28T06:19:43.987Z,0.60
2022-12-28T06:22:11.643Z,0.30
2022-12-28T06:24:39.303Z,1.00
2022-12-28T06:27:06.934Z,1.27
2022-12-28T06:29:34.600Z,0.40
2022-12-28T06:32:02.302Z,0.50
2022-12-28T06:34:32.106Z,0.30
2022-12-28T06:37:00.413Z,0.63
2022-12-28T06:39:29.181Z,0.37
2022-12-28T06:41:56.829Z,0.30
2022-12-28T06:44:24.821Z,0.50
2022-12-28T06:46:52.489Z,0.47
2022-12-28T06:49:20.889Z,0.50
2022-12-28T06:51:49.952Z,0.57
2022-12-28T06:54:18.178Z,0.20
2022-12-28T06:56:45.801Z,0.47
2022-12-28T06:59:13.763Z,0.93
2022-12-28T07:01:44.652Z,0.93
2022-12-28T07:04:13.266Z,0.50
2022-12-28T07:06:42.411Z,1.03
2022-12-28T07:09:14.461Z,0.67
2022-12-28T07:11:42.419Z,0.30
2022-12-28T07:14:10.252Z,0.37
2022-12-28T07:19:05.776Z,1.33
2022-12-28T07:21:35.105Z,0.63
2022-12-28T07:24:03.891Z,0.93
2022-12-28T07:26:36.023Z,3.60
2022-12-28T07:29:06.074Z,5.00
2022-12-28T07:31:41.662Z,7.63
2022-12-28T07:34:13.189Z,1.47
2022-12-28T07:36:40.850Z,0.90
2022-12-28T07:39:10.711Z,1.23
2022-12-28T07:41:39.754Z,1.43
2022-12-28T07:44:08.160Z,0.50
2022-12-28T07:46:37.302Z,0.63
2022-12-28T07:49:06.329Z,0.20
2022-12-28T07:51:36.213Z,0.47
2022-12-28T07:54:05.162Z,0.93
2022-12-28T07:59:06.204Z,0.80
2022-12-28T08:01:36.062Z,0.40
2022-12-28T08:04:06.566Z,0.53
2022-12-28T08:06:36.785Z,1.47
2022-12-28T08:09:06.296Z,0.30
2022-12-28T08:11:36.818Z,0.80
2022-12-28T08:14:06.751Z,0.67
2022-12-28T08:16:37.009Z,0.87
2022-12-28T08:19:04.887Z,0.50
2022-12-28T08:21:36.620Z,0.57
2022-12-28T08:24:05.471Z,0.63
2022-12-28T08:26:35.297Z,0.60
2022-12-28T08:29:05.176Z,1.00
2022-12-28T08:31:37.479Z,0.93
2022-12-28T08:34:07.897Z,2.10
2022-12-28T08:36:36.238Z,0.70
2022-12-28T08:39:04.707Z,1.07
2022-12-28T08:41:33.075Z,1.10
2022-12-28T08:44:00.952Z,1.10
2022-12-28T08:46:30.607Z,1.30
2022-12-28T08:49:00.709Z,1.30
2022-12-28T08:51:31.970Z,1.83
2022-12-28T08:54:00.704Z,1.83
2022-12-28T08:56:30.668Z,1.27
2022-12-28T08:58:59.498Z,1.57
2022-12-28T09:01:30.238Z,1.27
2022-12-28T09:04:01.675Z,0.40
2022-12-28T09:06:32.479Z,0.80
2022-12-28T09:09:08.603Z,0.63
2022-12-28T09:11:38.454Z,0.80
2022-12-28T09:14:08.209Z,0.40
2022-12-28T09:16:38.636Z,0.70
2022-12-28T09:19:09.947Z,1.23
2022-12-28T09:21:39.546Z,0.70
2022-12-28T09:24:08.138Z,0.50
2022-12-28T09:26:38.051Z,0.63
2022-12-28T09:29:07.301Z,0.60
2022-12-28T09:31:38.609Z,1.03
2022-12-28T09:36:59.934Z,1.03
2022-12-28T09:39:27.745Z,1.30
2022-12-28T09:41:58.496Z,1.73
2022-12-28T09:44:43.359Z,2.50
2022-12-28T09:47:20.710Z,1.90
2022-12-28T09:50:01.071Z,2.07
2022-12-28T09:52:32.076Z,1.60
2022-12-28T09:55:07.972Z,1.60
2022-12-28T09:57:39.532Z,2.60
2022-12-28T10:00:15.299Z,1.10
2022-12-28T10:02:49.388Z,1.37
2022-12-28T10:05:20.149Z,1.47
2022-12-28T10:07:48.300Z,1.00
2022-12-28T10:10:18.351Z,1.80
2022-12-28T10:12:47.415Z,1.80
2022-12-28T10:15:16.847Z,1.90
2022-12-28T10:17:46.445Z,2.67
2022-12-28T10:20:20.652Z,2.33
2022-12-28T10:22:53.575Z,1.80
2022-12-28T10:25:23.839Z,1.63
2022-12-28T10:27:52.263Z,3.70
2022-12-28T10:30:26.690Z,0.77
2022-12-28T10:33:02.699Z,1.13
2022-12-28T10:35:38.297Z,1.20
2022-12-28T10:38:19.912Z,0.83
2022-12-28T10:40:57.674Z,0.90
2022-12-28T10:43:30.190Z,0.83
2022-12-28T10:45:59.937Z,1.50
2022-12-28T10:48:32.591Z,0.90
2022-12-28T10:51:12.395Z,0.60
2022-12-28T10:53:44.116Z,0.60
2022-12-28T10:56:24.153Z,0.73
2022-12-28T10:58:53.390Z,0.50
2022-12-28T11:01:26.628Z,0.30
2022-12-28T11:04:08.483Z,1.30
2022-12-28T11:06:51.472Z,0.10
2022-12-28T11:09:23.552Z,0.20
2022-12-28T11:11:54.032Z,0.80
2022-12-28T11:14:33.076Z,0.27
2022-12-28T11:17:16.245Z,0.10
2022-12-28T11:19:44.193Z,0.20
2022-12-28T11:22:16.358Z,0.47
2022-12-28T11:24:44.604Z,0.20
2022-12-28T11:27:17.490Z,0.13
2022-12-28T11:29:48.628Z,0.57
2022-12-28T11:32:22.551Z,0.30
2022-12-28T11:34:51.016Z,0.30
2022-12-28T11:37:20.092Z,0.10
2022-12-28T11:39:49.631Z,0.30
2022-12-28T11:42:59.329Z,0.13
2022-12-28T11:45:53.342Z,0.67
2022-12-28T11:48:49.353Z,0.10
2022-12-28T11:51:19.057Z,0.30
2022-12-28T11:53:53.632Z,0.20
2022-12-28T11:56:22.063Z,0.20
2022-12-28T11:59:05.564Z,0.30
2022-12-28T12:01:56.529Z,0.10
2022-12-28T12:04:40.962Z,0.23
2022-12-28T12:07:31.564Z,0.20
2022-12-28T12:10:35.700Z,0.10
2022-12-28T12:13:36.746Z,0.20
2022-12-28T12:16:17.121Z,0.10
2022-12-28T12:18:47.896Z,0.10
2022-12-28T12:21:29.495Z,0.17
2022-12-28T12:24:04.768Z,0.10
2022-12-28T12:26:37.914Z,0.30
2022-12-28T12:29:08.936Z,0.10
2022-12-28T12:31:43.710Z,0.10
2022-12-28T12:34:19.783Z,0.10
2022-12-28T12:37:19.309Z,0.20
2022-12-28T12:40:18.746Z,0.37
2022-12-28T12:43:03.971Z,0.10
2022-12-28T12:45:40.488Z,0.33
2022-12-28T12:48:31.176Z,0.10
2022-12-28T12:51:11.087Z,0.17
2022-12-28T12:53:52.487Z,0.20
2022-12-28T12:56:33.716Z,0.10
2022-12-28T12:59:22.648Z,0.10
2022-12-28T13:01:56.934Z,0.30
2022-12-28T13:04:29.815Z,0.23
2022-12-28T13:07:00.940Z,0.30
2022-12-28T13:09:31.381Z,0.10
2022-12-28T13:12:01.390Z,0.10
2022-12-28T13:14:29.631Z,0.20
2022-12-28T13:17:00.161Z,0.73
2022-12-28T13:19:31.032Z,0.40
2022-12-28T13:21:59.532Z,0.10
2022-12-28T13:24:29.613Z,0.60
2022-12-28T13:26:58.942Z,0.10
2022-12-28T13:29:29.040Z,0.23
2022-12-28T13:31:56.671Z,0.30
2022-12-28T13:34:26.980Z,0.10
2022-12-28T13:36:59.148Z,0.30
2022-12-28T13:39:28.536Z,0.10
2022-12-28T13:41:59.256Z,0.20
2022-12-28T13:44:35.855Z,0.37
2022-12-28T13:47:09.808Z,0.10
2022-12-28T13:49:43.155Z,0.20
2022-12-28T13:52:18.033Z,0.10
2022-12-28T13:54:50.211Z,0.10
2022-12-28T13:57:45.806Z,0.10
2022-12-28T14:00:08.939Z,1.77
2022-12-28T14:02:40.269Z,0.10
2022-12-28T14:05:16.094Z,0.30
2022-12-28T14:07:45.379Z,0.30
2022-12-28T14:10:14.642Z,0.10
2022-12-28T14:12:42.650Z,0.10
2022-12-28T14:15:12.061Z,0.00
2022-12-28T14:17:41.061Z,0.13
2022-12-28T14:20:11.045Z,0.13
2022-12-28T14:22:40.805Z,0.20
2022-12-28T14:25:11.838Z,0.67
2022-12-28T14:27:42.555Z,0.10
2022-12-28T14:30:24.492Z,0.53
2022-12-28T14:32:53.024Z,0.10
2022-12-28T14:35:24.445Z,0.20
2022-12-28T14:37:55.074Z,0.30
2022-12-28T14:40:29.440Z,0.10
2022-12-28T14:42:58.092Z,0.00
2022-12-28T14:48:33.666Z,0.33
2022-12-28T14:51:04.770Z,0.10
2022-12-28T14:53:33.310Z,0.10
2022-12-28T14:56:07.447Z,0.20
2022-12-28T14:58:41.889Z,0.47
2022-12-28T15:01:10.490Z,0.10
2022-12-28T15:03:52.916Z,0.03
2022-12-28T15:06:21.711Z,0.90
2022-12-28T15:08:50.876Z,0.30
2022-12-28T15:11:21.267Z,0.27
2022-12-28T15:13:49.816Z,0.30
2022-12-28T15:16:19.334Z,0.50
2022-12-28T15:18:47.469Z,0.87
2022-12-28T15:21:18.677Z,0.10
2022-12-28T15:23:49.552Z,0.30
2022-12-28T15:26:17.999Z,0.70
2022-12-28T15:28:47.418Z,0.50
2022-12-28T15:31:18.377Z,0.60
2022-12-28T15:33:46.930Z,0.70
2022-12-28T15:36:18.059Z,0.60
2022-12-28T15:38:46.370Z,0.77
2022-12-28T15:41:32.645Z,0.37
2022-12-28T15:44:01.718Z,0.40
2022-12-28T15:46:30.527Z,0.40
2022-12-28T15:48:58.280Z,0.30
2022-12-28T15:51:26.214Z,0.83
2022-12-28T15:53:53.852Z,0.50
2022-12-28T15:56:24.012Z,2.87
2022-12-28T15:58:54.509Z,1.07
2022-12-28T16:01:25.779Z,3.60
2022-12-28T16:03:54.618Z,2.57
2022-12-28T16:06:24.153Z,3.03
2022-12-28T16:08:54.194Z,1.50
2022-12-28T16:11:22.925Z,0.83
2022-12-28T16:13:52.772Z,1.27
2022-12-28T16:16:22.351Z,1.93
2022-12-28T16:18:51.584Z,2.37
2022-12-28T16:21:19.656Z,3.47
2022-12-28T16:23:47.476Z,2.77
2022-12-28T16:26:15.844Z,6.13
2022-12-28T16:28:43.585Z,7.50
2022-12-28T16:31:22.459Z,2.70
2022-12-28T16:33:54.961Z,2.30
2022-12-28T16:36:23.200Z,1.63
2022-12-28T16:38:51.203Z,1.97
2022-12-28T16:41:20.076Z,1.40
2022-12-28T16:43:48.771Z,1.47
2022-12-28T16:46:17.554Z,1.73
2022-12-28T16:48:45.583Z,1.43
2022-12-28T16:51:15.187Z,1.93
2022-12-28T16:53:42.841Z,1.73
2022-12-28T16:56:11.384Z,2.13
2022-12-28T16:58:39.037Z,1.13
2022-12-28T17:01:09.162Z,1.73
2022-12-28T17:03:38.842Z,1.80
2022-12-28T17:06:07.216Z,1.53
2022-12-28T17:08:37.753Z,1.13
2022-12-28T17:11:09.187Z,1.67
2022-12-28T17:13:37.738Z,1.90
2022-12-28T17:16:06.184Z,0.80
2022-12-28T17:18:34.317Z,0.90
2022-12-28T17:21:06.675Z,1.17
2022-12-28T17:23:36.471Z,1.00
2022-12-28T17:26:04.132Z,2.43
2022-12-28T17:28:32.143Z,2.57
2022-12-28T17:31:11.929Z,3.07
2022-12-28T17:33:40.447Z,2.90
2022-12-28T17:36:09.184Z,2.27
2022-12-28T17:38:38.425Z,4.30
2022-12-28T17:41:11.156Z,5.67
2022-12-28T17:43:39.503Z,5.00
2022-12-28T17:46:07.824Z,6.23
2022-12-28T17:48:36.042Z,7.50
2022-12-28T17:51:10.812Z,8.00
2022-12-28T17:53:41.185Z,6.33
2022-12-28T17:56:11.137Z,4.80
2022-12-28T17:58:39.799Z,4.03
2022-12-28T18:01:08.207Z,4.13
2022-12-28T18:03:36.916Z,7.27
2022-12-28T18:06:05.277Z,6.27
2022-12-28T18:08:33.679Z,4.53
2022-12-28T18:11:03.063Z,3.50
2022-12-28T18:13:31.386Z,3.83
2022-12-28T18:15:59.438Z,2.50
2022-12-28T18:18:27.488Z,2.23
2022-12-28T18:20:59.181Z,1.73
2022-12-28T18:23:28.262Z,3.23
2022-12-28T18:26:03.338Z,2.50
2022-12-28T18:28:31.341Z,2.40
2022-12-28T18:31:02.000Z,2.80
2022-12-28T18:33:30.855Z,2.70
2022-12-28T18:35:58.638Z,4.70
2022-12-28T18:38:26.730Z,4.63
2022-12-28T18:40:56.748Z,4.03
2022-12-28T18:43:26.473Z,3.07
2022-12-28T18:45:54.729Z,2.90
2022-12-28T18:48:23.478Z,2.70
2022-12-28T18:50:55.449Z,3.53
2022-12-28T18:53:23.704Z,3.30
2022-12-28T18:55:57.833Z,3.57
2022-12-28T18:58:28.516Z,2.50
2022-12-28T19:01:02.749Z,2.57
2022-12-28T19:03:30.793Z,1.83
2022-12-28T19:06:02.817Z,2.00
2022-12-28T19:08:32.779Z,1.90
2022-12-28T19:11:00.812Z,1.77
2022-12-28T19:13:29.962Z,1.40
2022-12-28T19:15:57.657Z,1.80
2022-12-28T19:18:25.341Z,3.07
2022-12-28T19:20:56.780Z,1.07
2022-12-28T19:23:24.617Z,2.07
2022-12-28T19:25:54.558Z,2.33
2022-12-28T19:28:22.291Z,2.33
2022-12-28T19:30:51.451Z,3.33
2022-12-28T19:33:19.311Z,4.63
2022-12-28T19:35:50.214Z,9.20
2022-12-28T19:38:17.855Z,5.40
2022-12-28T19:40:45.964Z,5.03
2022-12-28T19:43:14.361Z,4.70
2022-12-28T19:45:42.207Z,4.97
2022-12-28T19:48:11.243Z,3.73
2022-12-28T19:50:39.211Z,3.20
2022-12-28T19:53:06.957Z,4.60
2022-12-28T19:55:35.083Z,5.73
2022-12-28T19:58:02.931Z,3.90
2022-12-28T20:00:30.582Z,3.33
2022-12-28T20:02:58.342Z,3.77
2022-12-28T20:05:29.370Z,2.97
2022-12-28T20:07:57.244Z,3.10
2022-12-28T20:10:25.306Z,3.33
2022-12-28T20:12:52.954Z,3.93
2022-12-28T20:15:21.002Z,3.50
2022-12-28T20:17:48.972Z,2.63
2022-12-28T20:20:18.196Z,2.57
2022-12-28T20:22:49.240Z,2.60
2022-12-28T20:25:17.007Z,3.47
2022-12-28T20:27:44.673Z,2.10
2022-12-28T20:30:13.730Z,2.90
2022-12-28T20:32:44.902Z,2.73
2022-12-28T20:35:13.835Z,2.87
2022-12-28T20:37:41.496Z,1.90
2022-12-28T20:40:12.292Z,1.60
2022-12-28T20:42:57.415Z,1.17
2022-12-28T20:45:25.073Z,1.43
2022-12-28T20:47:54.524Z,0.70
2022-12-28T20:50:22.531Z,1.10
2022-12-28T20:52:53.702Z,1.27
2022-12-28T20:55:22.865Z,1.17
2022-12-28T20:57:50.868Z,1.47
2022-12-28T21:00:19.056Z,1.40
2022-12-28T21:02:46.851Z,1.00
2022-12-28T21:05:15.261Z,1.27
2022-12-28T21:07:43.036Z,1.70
2022-12-28T21:10:11.115Z,1.73
2022-12-28T21:12:40.703Z,1.67
2022-12-28T21:15:09.629Z,2.27
2022-12-28T21:17:37.342Z,1.67
2022-12-28T21:20:05.635Z,1.83
2022-12-28T21:22:33.298Z,1.37
2022-12-28T21:25:01.627Z,1.60
2022-12-28T21:27:29.422Z,1.77
2022-12-28T21:29:58.807Z,1.33
2022-12-28T21:32:26.460Z,1.23
2022-12-28T21:34:54.440Z,1.80
2022-12-28T21:37:37.153Z,1.77
2022-12-28T21:40:07.889Z,1.57
2022-12-28T21:42:36.467Z,1.50
2022-12-28T21:45:06.512Z,1.53
2022-12-28T21:47:35.657Z,1.33
2022-12-28T21:50:04.919Z,1.47
2022-12-28T21:52:33.796Z,1.37
2022-12-28T21:55:22.549Z,1.50
2022-12-28T21:57:50.815Z,1.77
2022-12-28T22:00:39.056Z,1.40
2022-12-28T22:03:25.069Z,1.30
2022-12-28T22:06:05.019Z,1.40
2022-12-28T22:08:50.978Z,1.17
2022-12-28T22:11:37.024Z,1.20
2022-12-28T22:14:05.828Z,1.73
2022-12-28T22:16:36.305Z,1.70
2022-12-28T22:19:04.911Z,2.60
2022-12-28T22:21:33.184Z,3.60
2022-12-28T22:24:00.810Z,1.30
2022-12-28T22:26:28.796Z,2.10
2022-12-28T22:28:56.880Z,2.30
2022-12-28T22:31:24.801Z,3.17
2022-12-28T22:33:55.659Z,3.70
2022-12-28T22:36:23.418Z,2.17
2022-12-28T22:38:51.102Z,2.10
2022-12-28T22:41:19.287Z,2.90
2022-12-28T22:43:50.597Z,2.90
2022-12-28T22:46:19.376Z,1.90
2022-12-28T22:48:47.272Z,3.37
2022-12-28T22:51:18.109Z,1.97
2022-12-28T22:53:45.996Z,2.77
2022-12-28T22:56:20.044Z,2.00
2022-12-28T22:58:48.418Z,2.37
2022-12-28T23:01:18.363Z,2.03
2022-12-28T23:03:47.554Z,2.23
2022-12-28T23:06:20.018Z,3.33
2022-12-28T23:08:48.220Z,1.93
2022-12-28T23:11:35.935Z,1.73
2022-12-28T23:14:19.492Z,2.50
2022-12-28T23:16:47.677Z,2.27
2022-12-28T23:19:34.172Z,1.60
2022-12-28T23:22:23.057Z,2.73
2022-12-28T23:25:08.768Z,4.07
2022-12-28T23:27:39.445Z,5.07
2022-12-28T23:30:09.663Z,3.27
2022-12-28T23:32:37.499Z,2.70
2022-12-28T23:35:05.749Z,2.63
2022-12-28T23:37:35.787Z,2.67
2022-12-28T23:40:04.091Z,4.20
2022-12-28T23:42:31.758Z,2.43
2022-12-28T23:44:59.419Z,3.23
2022-12-28T23:47:27.466Z,3.20
2022-12-28T23:49:55.162Z,3.67
2022-12-28T23:52:25.968Z,4.17
2022-12-28T23:54:55.300Z,2.80
2022-12-28T23:57:24.048Z,4.10
2022-12-28T23:59:51.692Z,3.20
